createdAt,value
2023-04-15T00:09:38.223Z,3.78
2023-04-15T00:19:39.563Z,3.85
2023-04-15T00:29:40.791Z,3.47
2023-04-15T00:39:42.044Z,3.70
2023-04-15T00:49:43.284Z,4.28
2023-04-15T00:59:44.528Z,3.58
2023-04-15T01:09:45.827Z,3.65
2023-04-15T01:19:47.091Z,4.28
2023-04-15T01:29:48.332Z,4.03
2023-04-15T01:39:49.629Z,3.53
2023-04-15T01:49:50.876Z,4.25
2023-04-15T01:59:52.115Z,4.47
2023-04-15T02:09:53.377Z,3.85
2023-04-15T02:19:54.596Z,3.38
2023-04-15T02:29:55.862Z,4.10
2023-04-15T02:39:57.112Z,3.55
2023-04-15T02:49:58.404Z,4.38
2023-04-15T02:59:59.700Z,3.80
2023-04-15T03:10:01.094Z,4.75
2023-04-15T03:20:02.448Z,3.55
2023-04-15T03:30:03.797Z,4.70
2023-04-15T03:40:05.028Z,4.25
2023-04-15T03:50:06.361Z,2.90
2023-04-15T04:00:07.654Z,3.47
2023-04-15T04:10:08.956Z,4.25
2023-04-15T04:20:10.228Z,4.18
2023-04-15T04:30:11.553Z,2.97
2023-04-15T04:40:12.847Z,3.38
2023-04-15T04:50:14.121Z,2.70
2023-04-15T05:00:15.375Z,2.83
2023-04-15T05:10:16.628Z,3.20
2023-04-15T05:20:17.892Z,4.43
2023-04-15T05:30:19.180Z,2.85
2023-04-15T05:40:26.767Z,3.40
2023-04-15T05:50:29.342Z,3.13
2023-04-15T06:00:30.619Z,3.90
2023-04-15T06:10:31.917Z,4.82
2023-04-15T06:20:33.206Z,5.88
2023-04-15T06:30:34.486Z,5.88
2023-04-15T06:51:07.660Z,4.43
2023-04-15T07:01:31.819Z,5.57
2023-04-15T07:11:39.810Z,7.55
2023-04-15T07:21:42.007Z,4.70
2023-04-15T07:31:43.383Z,4.78
2023-04-15T07:41:44.635Z,3.05
2023-04-15T07:51:46.199Z,3.28
2023-04-15T08:01:53.884Z,2.47
2023-04-15T08:12:01.742Z,2.05
2023-04-15T08:22:11.229Z,3.83
2023-04-15T08:32:19.857Z,2.72
2023-04-15T08:42:27.785Z,1.42
2023-04-15T08:52:35.783Z,1.75
2023-04-15T09:02:43.896Z,1.50
2023-04-15T09:12:51.825Z,3.67
2023-04-15T09:22:59.791Z,1.85
2023-04-15T09:33:07.840Z,2.33
2023-04-15T09:43:18.704Z,3.30
2023-04-15T09:53:23.990Z,1.90
2023-04-15T10:03:32.020Z,1.58
2023-04-15T10:13:43.654Z,1.20
2023-04-15T10:23:48.963Z,1.45
2023-04-15T10:33:56.995Z,1.08
2023-04-15T10:44:04.997Z,1.33
2023-04-15T10:54:12.845Z,1.00
2023-04-15T11:14:42.808Z,0.65
2023-04-15T11:24:44.157Z,1.30
2023-04-15T11:34:45.896Z,1.92
2023-04-15T11:44:56.892Z,1.30
2023-04-15T12:05:26.861Z,0.85
2023-04-15T12:15:28.126Z,0.98
2023-04-15T12:25:33.245Z,1.45
2023-04-15T12:35:41.130Z,0.80
2023-04-15T12:45:43.850Z,1.45
2023-04-15T12:55:52.815Z,1.30
2023-04-15T13:06:00.844Z,1.20
2023-04-15T13:16:08.845Z,0.82
2023-04-15T13:26:16.848Z,1.58
2023-04-15T13:36:25.818Z,1.10
2023-04-15T13:56:56.378Z,1.35
2023-04-15T14:06:57.670Z,1.40
2023-04-15T14:16:59.010Z,0.93
2023-04-15T14:37:48.657Z,1.52
2023-04-15T14:47:50.077Z,1.55
2023-04-15T15:08:20.098Z,1.50
2023-04-15T15:18:21.332Z,1.33
2023-04-15T15:28:22.908Z,1.08
2023-04-15T15:38:24.404Z,1.25
2023-04-15T15:48:25.800Z,1.50
2023-04-15T15:58:28.192Z,1.27
2023-04-15T16:08:29.794Z,0.90
2023-04-15T16:18:37.873Z,0.93
2023-04-15T16:28:50.610Z,1.40
2023-04-15T16:38:59.151Z,2.65
2023-04-15T16:49:03.026Z,1.33
2023-04-15T16:59:10.877Z,1.15
2023-04-15T17:09:23.105Z,1.65
2023-04-15T17:19:28.303Z,1.70
2023-04-15T17:29:35.920Z,2.05
2023-04-15T17:39:44.025Z,2.47
2023-04-15T17:49:51.901Z,2.08
2023-04-15T18:00:00.914Z,2.00
2023-04-15T18:10:08.255Z,3.38
2023-04-15T18:20:16.922Z,2.50
2023-04-15T18:30:18.237Z,1.65
2023-04-15T18:40:19.906Z,1.50
2023-04-15T18:50:21.159Z,2.78
2023-04-15T19:00:22.417Z,1.83
2023-04-15T19:10:23.791Z,2.20
2023-04-15T19:20:25.074Z,2.60
2023-04-15T19:30:26.299Z,3.10
2023-04-15T19:40:27.551Z,2.63
2023-04-15T19:50:28.826Z,2.22
2023-04-15T20:00:30.091Z,2.13
2023-04-15T20:10:31.382Z,3.42
2023-04-15T20:20:32.667Z,2.72
2023-04-15T20:30:33.928Z,3.50
2023-04-15T20:40:35.166Z,2.40
2023-04-15T20:50:36.474Z,2.20
2023-04-15T21:00:37.775Z,3.10
2023-04-15T21:10:39.045Z,2.53
2023-04-15T21:20:40.290Z,2.22
2023-04-15T21:30:41.550Z,2.58
2023-04-15T21:40:42.856Z,3.55
2023-04-15T21:50:44.170Z,2.17
2023-04-15T22:00:45.431Z,3.03
2023-04-15T22:10:46.678Z,3.70
2023-04-15T22:20:47.962Z,2.78
2023-04-15T22:30:49.218Z,3.80
2023-04-15T22:40:50.463Z,2.20
2023-04-15T22:50:51.736Z,1.85
2023-04-15T23:00:52.972Z,2.38
2023-04-15T23:10:54.209Z,2.22
2023-04-15T23:20:55.496Z,2.25
2023-04-15T23:30:58.020Z,1.52
2023-04-15T23:41:01.058Z,3.17
2023-04-15T23:51:02.380Z,2.38
